Time;durP1;ratioP1;P1;durP2;ratioP2;P2;SDS_P1;SDS_P2;PMS_P1;PMS_P2;Temp;Humidity;BMP_temperature;BMP_pressure;BME280_temperature;BME280_humidity;BME280_pressure;Samples;Min_cycle;Max_cycle;Signal;HPM_P1;HPM_P2
2021/05/27 00:03:58;;;;;;;1.00;1.00;;;13.00;40.90;;;;;;10387682;28;20233;-70
2021/05/27 00:09:01;;;;;;;1.43;0.93;;;12.90;40.80;;;;;;10407463;28;20249;-71
2021/05/27 00:14:05;;;;;;;1.07;1.00;;;12.90;40.80;;;;;;10407911;28;20234;-70
2021/05/27 00:19:07;;;;;;;1.00;1.00;;;12.90;41.20;;;;;;10405855;28;20222;-70
2021/05/27 00:24:11;;;;;;;0.90;0.90;;;12.80;41.00;;;;;;10403946;28;20244;-70
2021/05/27 00:29:14;;;;;;;1.20;1.00;;;12.80;41.20;;;;;;10386233;28;20229;-71
2021/05/27 00:34:17;;;;;;;0.97;0.80;;;12.80;41.40;;;;;;10374697;28;20234;-71
2021/05/27 00:39:20;;;;;;;0.70;0.70;;;12.70;41.20;;;;;;10399319;28;20312;-71
2021/05/27 00:44:25;;;;;;;0.77;0.77;;;12.70;41.40;;;;;;10379685;28;20309;-71
2021/05/27 00:49:28;;;;;;;0.97;0.80;;;12.70;41.90;;;;;;10385610;28;20226;-71
2021/05/27 00:54:31;;;;;;;0.83;0.83;;;12.60;41.90;;;;;;10379732;28;20233;-70
2021/05/27 00:59:35;;;;;;;2.80;1.07;;;12.60;41.90;;;;;;10407113;28;20324;-70
2021/05/27 01:04:38;;;;;;;1.70;0.80;;;12.60;42.20;;;;;;10412971;28;20239;-70
2021/05/27 01:09:56;;;;;;;1.00;0.90;;;12.70;41.80;;;;;;10415008;28;20233;-70
2021/05/27 01:20:21;;;;;;;0.90;0.90;;;12.70;42.20;;;;;;10395928;28;20225;-70
2021/05/27 01:25:24;;;;;;;0.83;0.83;;;12.70;41.70;;;;;;10414408;28;20230;-69
2021/05/27 01:30:27;;;;;;;1.90;0.90;;;12.70;42.30;;;;;;10414342;28;20338;-70
2021/05/27 01:35:30;;;;;;;0.90;0.90;;;12.70;42.30;;;;;;10414162;28;20264;-70
2021/05/27 01:40:33;;;;;;;1.00;0.90;;;12.70;42.20;;;;;;10413867;28;20232;-70
2021/05/27 01:45:37;;;;;;;1.87;0.90;;;12.60;42.20;;;;;;10409508;28;20710;-71
2021/05/27 01:50:40;;;;;;;1.10;1.00;;;12.60;42.20;;;;;;10392062;28;20833;-71
2021/05/27 01:55:46;;;;;;;1.57;0.80;;;12.60;42.20;;;;;;10399556;28;20223;-71
2021/05/27 02:00:49;;;;;;;1.30;1.20;;;12.60;42.20;;;;;;10390181;28;20309;-71
2021/05/27 02:05:51;;;;;;;1.23;0.87;;;12.60;42.20;;;;;;10400341;28;20736;-71
2021/05/27 02:10:55;;;;;;;1.10;1.00;;;12.50;42.10;;;;;;10392809;28;20725;-71
2021/05/27 02:15:58;;;;;;;0.90;0.90;;;12.60;42.30;;;;;;10394979;28;20232;-71
2021/05/27 02:21:00;;;;;;;1.10;1.00;;;12.50;42.10;;;;;;10410333;28;20236;-71
2021/05/27 02:26:04;;;;;;;0.97;0.97;;;12.50;42.10;;;;;;10403858;28;20668;-70
2021/05/27 02:31:06;;;;;;;0.87;0.87;;;12.50;42.50;;;;;;10411693;28;20234;-71
2021/05/27 02:36:10;;;;;;;1.00;0.93;;;12.50;42.10;;;;;;10411851;28;20230;-70
2021/05/27 02:41:13;;;;;;;1.20;1.10;;;12.50;42.20;;;;;;10394772;28;20902;-70
2021/05/27 02:46:16;;;;;;;1.00;1.00;;;12.50;42.70;;;;;;10396752;28;20266;-70
2021/05/27 02:51:25;;;;;;;1.60;1.10;;;12.50;42.50;;;;;;10369139;28;20276;-70
2021/05/27 02:56:29;;;;;;;1.40;1.33;;;12.50;42.60;;;;;;10369670;28;20318;-70
2021/05/27 03:01:31;;;;;;;1.00;1.00;;;12.50;42.90;;;;;;10369864;28;20222;-70
2021/05/27 03:06:34;;;;;;;1.00;1.00;;;12.50;43.20;;;;;;10408491;28;20236;-70
2021/05/27 03:11:38;;;;;;;2.00;1.27;;;12.50;42.50;;;;;;10406416;28;20352;-70
2021/05/27 03:16:40;;;;;;;1.30;1.30;;;12.50;42.90;;;;;;10409112;28;20233;-70
2021/05/27 03:21:43;;;;;;;1.57;1.30;;;12.50;42.50;;;;;;10409762;28;20222;-70
2021/05/27 03:26:51;;;;;;;1.20;1.20;;;12.50;42.50;;;;;;10405080;28;20229;-71
2021/05/27 03:31:53;;;;;;;1.63;1.20;;;12.50;42.60;;;;;;10377359;28;20259;-71
2021/05/27 03:36:56;;;;;;;1.40;1.20;;;12.60;42.40;;;;;;10391041;28;20229;-71
2021/05/27 03:42:00;;;;;;;1.20;1.20;;;12.50;42.50;;;;;;10400076;28;20309;-70
2021/05/27 03:47:02;;;;;;;2.03;1.40;;;12.50;43.00;;;;;;10404038;28;20712;-70
2021/05/27 03:52:05;;;;;;;1.67;1.20;;;12.50;42.60;;;;;;10373162;28;20607;-70
2021/05/27 03:57:09;;;;;;;1.63;1.20;;;12.40;42.90;;;;;;10385469;28;20318;-70
2021/05/27 04:02:12;;;;;;;1.40;1.30;;;12.40;43.40;;;;;;10375197;28;20314;-70
2021/05/27 04:07:17;;;;;;;1.30;1.27;;;12.50;43.20;;;;;;10403752;28;20240;-70
2021/05/27 04:17:41;;;;;;;1.80;1.53;;;12.50;43.40;;;;;;10406411;28;20340;-70
2021/05/27 04:22:46;;;;;;;2.17;1.47;;;12.50;43.20;;;;;;10407861;28;20236;-70
2021/05/27 04:27:50;;;;;;;1.50;1.40;;;12.50;43.40;;;;;;10407389;28;20231;-70
2021/05/27 04:32:55;;;;;;;1.57;1.47;;;12.50;43.60;;;;;;10404820;28;20345;-70
2021/05/27 04:38:01;;;;;;;1.57;1.47;;;12.50;43.50;;;;;;10388526;28;20233;-70
2021/05/27 04:43:05;;;;;;;1.70;1.60;;;12.50;43.70;;;;;;10392233;28;20225;-70
2021/05/27 04:48:10;;;;;;;1.70;1.50;;;12.50;43.60;;;;;;10407352;28;20250;-70
2021/05/27 04:53:13;;;;;;;2.60;1.80;;;12.50;43.50;;;;;;10386726;28;20244;-70
2021/05/27 04:58:16;;;;;;;2.53;1.67;;;12.60;43.20;;;;;;10366017;28;20236;-70
2021/05/27 05:03:19;;;;;;;1.80;1.70;;;12.60;43.40;;;;;;10373463;28;20232;-70
2021/05/27 05:08:22;;;;;;;1.70;1.60;;;12.60;43.30;;;;;;10406498;28;20746;-70
2021/05/27 05:13:25;;;;;;;1.80;1.70;;;12.60;43.40;;;;;;10400625;28;20248;-70
2021/05/27 05:18:28;;;;;;;1.63;1.53;;;12.60;43.60;;;;;;10381118;28;20320;-70
2021/05/27 05:23:31;;;;;;;1.83;1.47;;;12.60;43.20;;;;;;10406502;28;20229;-70
2021/05/27 05:28:35;;;;;;;2.07;1.50;;;12.60;43.20;;;;;;10390418;28;20301;-70
2021/05/27 05:33:37;;;;;;;3.53;1.80;;;12.60;43.40;;;;;;10365048;28;20238;-69
2021/05/27 05:38:40;;;;;;;1.37;1.20;;;12.60;43.20;;;;;;10393139;28;20309;-70
2021/05/27 05:43:44;;;;;;;1.80;1.70;;;12.60;43.10;;;;;;10413597;28;20230;-70
2021/05/27 05:48:47;;;;;;;1.60;1.50;;;12.50;43.50;;;;;;10413521;28;20304;-70
2021/05/27 05:53:49;;;;;;;1.73;1.30;;;12.50;43.30;;;;;;10413277;28;20762;-70
2021/05/27 05:58:53;;;;;;;1.50;1.40;;;12.50;43.40;;;;;;10412977;28;20309;-70
2021/05/27 06:03:56;;;;;;;2.10;2.00;;;12.50;43.70;;;;;;10412869;28;20232;-70
2021/05/27 06:08:58;;;;;;;1.67;1.57;;;12.50;43.50;;;;;;10412694;28;20328;-70
2021/05/27 06:14:02;;;;;;;2.00;1.80;;;12.50;43.40;;;;;;10412136;28;20245;-71
2021/05/27 06:19:05;;;;;;;1.47;1.37;;;12.60;43.80;;;;;;10412205;28;20222;-70
2021/05/27 06:24:09;;;;;;;1.40;1.30;;;12.60;43.30;;;;;;10411841;28;20230;-70
2021/05/27 06:29:13;;;;;;;1.40;1.30;;;12.60;43.60;;;;;;10412024;28;20260;-70
2021/05/27 06:34:16;;;;;;;2.20;1.10;;;12.70;43.70;;;;;;10411698;28;20312;-70
2021/05/27 06:39:19;;;;;;;2.57;2.00;;;12.70;43.40;;;;;;10411729;28;20229;-70
2021/05/27 06:44:22;;;;;;;2.00;1.40;;;12.70;43.40;;;;;;10411047;28;20760;-70
2021/05/27 06:49:25;;;;;;;1.80;1.33;;;12.80;43.60;;;;;;10410975;28;20305;-69
2021/05/27 06:54:30;;;;;;;1.60;1.47;;;12.80;43.40;;;;;;10409670;28;20229;-70
2021/05/27 06:59:34;;;;;;;1.60;1.50;;;12.80;43.70;;;;;;10410918;28;20686;-70
2021/05/27 07:04:37;;;;;;;1.30;1.20;;;12.80;44.00;;;;;;10404022;28;20320;-70
2021/05/27 07:09:39;;;;;;;2.83;2.20;;;12.90;43.90;;;;;;10403298;28;20694;-70
2021/05/27 07:14:44;;;;;;;1.43;1.33;;;13.00;43.90;;;;;;10405986;28;20309;-71
2021/05/27 07:19:47;;;;;;;1.40;1.30;;;13.10;43.90;;;;;;10408164;28;20301;-70
2021/05/27 07:24:49;;;;;;;2.00;1.37;;;13.20;43.70;;;;;;10406918;28;20338;-70
2021/05/27 07:29:53;;;;;;;1.30;1.20;;;13.30;43.60;;;;;;10409397;28;20320;-71
2021/05/27 07:34:56;;;;;;;1.47;1.37;;;13.40;43.60;;;;;;10409396;28;20273;-69
2021/05/27 07:39:58;;;;;;;1.50;1.30;;;13.50;43.00;;;;;;10403000;28;20854;-68
2021/05/27 07:45:02;;;;;;;1.73;1.30;;;13.60;43.10;;;;;;10368132;28;20663;-68
2021/05/27 07:50:07;;;;;;;1.40;1.30;;;13.60;43.10;;;;;;10327422;28;20291;-69
2021/05/27 07:55:11;;;;;;;1.40;1.30;;;13.60;43.10;;;;;;10348135;28;20325;-68
2021/05/27 08:00:16;;;;;;;1.70;1.30;;;13.70;43.20;;;;;;10385413;28;20226;-69
2021/05/27 08:05:20;;;;;;;1.97;1.73;;;13.80;43.30;;;;;;10389409;28;20708;-68
2021/05/27 08:10:23;;;;;;;1.60;1.50;;;13.90;43.40;;;;;;10386603;28;20256;-69
2021/05/27 08:15:26;;;;;;;1.87;1.60;;;13.90;42.80;;;;;;10388405;28;20722;-69
2021/05/27 08:20:29;;;;;;;1.90;1.70;;;14.00;43.40;;;;;;10387180;28;20275;-68
2021/05/27 08:25:33;;;;;;;1.70;1.60;;;14.00;43.00;;;;;;10383217;28;20230;-69
2021/05/27 08:30:36;;;;;;;2.00;1.60;;;14.00;43.00;;;;;;10387112;28;20229;-69
2021/05/27 08:35:39;;;;;;;2.50;1.70;;;14.10;43.10;;;;;;10386289;28;20230;-69
2021/05/27 08:40:42;;;;;;;3.33;1.70;;;14.20;43.20;;;;;;10388505;28;20225;-67
2021/05/27 08:45:47;;;;;;;1.63;1.53;;;14.40;43.70;;;;;;10384877;28;20230;-68
2021/05/27 08:50:51;;;;;;;1.77;1.67;;;14.70;42.80;;;;;;10389473;28;20226;-67
2021/05/27 08:55:54;;;;;;;16.50;4.30;;;14.90;42.60;;;;;;10383713;28;20226;-68
2021/05/27 09:00:58;;;;;;;9.13;2.63;;;15.10;42.20;;;;;;10390256;28;20308;-68
2021/05/27 09:06:02;;;;;;;3.63;1.87;;;15.20;41.50;;;;;;10382555;28;20234;-68
2021/05/27 09:11:07;;;;;;;2.07;1.50;;;15.30;41.10;;;;;;10389500;28;20226;-68
2021/05/27 09:16:12;;;;;;;3.27;1.70;;;15.30;41.40;;;;;;10387185;28;20714;-68
2021/05/27 09:21:16;;;;;;;1.53;1.43;;;15.40;41.00;;;;;;10396261;28;20236;-68
2021/05/27 09:26:20;;;;;;;1.33;1.23;;;15.50;41.40;;;;;;10392652;28;20309;-68
2021/05/27 09:31:25;;;;;;;1.20;1.10;;;15.50;41.10;;;;;;10394996;28;20232;-69
2021/05/27 09:36:27;;;;;;;2.53;1.20;;;15.60;40.80;;;;;;10393294;28;20317;-68
2021/05/27 09:41:33;;;;;;;2.20;1.33;;;15.70;41.20;;;;;;10383493;28;20226;-68
2021/05/27 09:46:50;;;;;;;1.87;1.30;;;15.90;40.80;;;;;;10373072;28;20753;-68
2021/05/27 09:51:54;;;;;;;13.30;2.60;;;16.00;39.90;;;;;;10372688;28;20226;-68
2021/05/27 09:56:57;;;;;;;1.40;1.30;;;16.20;40.50;;;;;;10372373;28;20729;-68
2021/05/27 10:02:14;;;;;;;1.90;1.30;;;16.40;40.70;;;;;;10372321;28;20726;-68
2021/05/27 10:07:37;;;;;;;1.70;1.20;;;16.50;39.10;;;;;;10371988;28;20280;-68
2021/05/27 10:13:00;;;;;;;1.47;1.30;;;16.70;39.00;;;;;;10352060;28;20233;-68
2021/05/27 10:18:05;;;;;;;1.10;1.00;;;16.80;39.70;;;;;;10329315;28;20235;-69
2021/05/27 10:23:08;;;;;;;1.43;1.23;;;16.90;39.00;;;;;;10330874;28;20231;-69
2021/05/27 10:28:12;;;;;;;1.20;1.10;;;17.00;39.00;;;;;;10367134;28;20229;-68
2021/05/27 10:33:19;;;;;;;1.80;1.20;;;17.10;38.90;;;;;;10408487;28;20304;-69
2021/05/27 10:38:46;;;;;;;1.20;1.10;;;17.20;38.70;;;;;;10372764;28;20305;-69
2021/05/27 10:44:17;;;;;;;1.33;1.10;;;17.30;39.20;;;;;;10411490;28;20257;-68
2021/05/27 10:49:51;;;;;;;1.93;1.30;;;17.50;38.00;;;;;;10410156;28;20227;-68
2021/05/27 10:54:54;;;;;;;1.50;1.40;;;17.70;37.60;;;;;;10410754;28;20256;-70
2021/05/27 10:59:57;;;;;;;1.20;1.10;;;17.80;38.00;;;;;;10410682;28;20229;-69
2021/05/27 11:05:15;;;;;;;1.37;1.27;;;18.00;38.90;;;;;;10408880;28;20912;-69
2021/05/27 11:10:29;;;;;;;1.53;1.40;;;18.20;37.00;;;;;;10408149;28;20225;-69
2021/05/27 11:15:32;;;;;;;2.27;1.33;;;18.30;35.00;;;;;;10408283;28;20265;-69
2021/05/27 11:20:35;;;;;;;1.87;1.40;;;18.30;36.80;;;;;;10407824;28;20233;-69
2021/05/27 11:25:41;;;;;;;1.63;1.20;;;18.20;36.20;;;;;;10407517;28;20710;-69
2021/05/27 11:30:45;;;;;;;1.50;1.40;;;18.20;36.50;;;;;;10403395;28;20275;-69
2021/05/27 11:35:51;;;;;;;1.33;1.10;;;18.10;35.80;;;;;;10403997;28;20913;-69
2021/05/27 11:40:57;;;;;;;1.10;1.00;;;18.10;35.30;;;;;;10403805;28;20229;-69
2021/05/27 11:46:01;;;;;;;1.07;1.07;;;18.00;36.60;;;;;;10407229;28;20656;-69
2021/05/27 11:51:08;;;;;;;1.43;1.00;;;18.10;35.80;;;;;;10407194;28;20233;-69
2021/05/27 11:56:10;;;;;;;1.13;1.10;;;18.20;34.90;;;;;;10406768;28;20230;-69
2021/05/27 12:01:18;;;;;;;1.00;1.00;;;18.20;36.10;;;;;;10407002;28;20257;-68
2021/05/27 12:06:22;;;;;;;1.07;1.07;;;18.30;35.70;;;;;;10367999;28;1165436;-68
2021/05/27 12:11:31;;;;;;;1.40;1.30;;;18.40;36.10;;;;;;10408441;28;20323;-69
2021/05/27 12:16:35;;;;;;;1.63;1.00;;;18.40;35.10;;;;;;10407136;28;20233;-69
2021/05/27 12:21:54;;;;;;;1.07;1.07;;;18.40;35.10;;;;;;10407936;28;20226;-69
2021/05/27 12:26:58;;;;;;;1.00;1.00;;;18.40;35.10;;;;;;10407908;28;20314;-69
2021/05/27 12:32:04;;;;;;;1.30;1.20;;;18.60;35.30;;;;;;10407547;28;20230;-69
2021/05/27 12:37:08;;;;;;;0.80;0.80;;;18.60;33.50;;;;;;10407534;28;20225;-68
2021/05/27 12:42:11;;;;;;;1.07;0.97;;;18.60;34.30;;;;;;10407727;28;20309;-68
2021/05/27 12:47:16;;;;;;;1.17;1.17;;;18.60;34.40;;;;;;10407231;28;20853;-69
2021/05/27 12:52:41;;;;;;;1.20;1.10;;;18.60;33.80;;;;;;10406224;28;20450;-69
2021/05/27 12:57:51;;;;;;;1.50;1.00;;;18.50;33.80;;;;;;10407021;28;20249;-69
2021/05/27 13:03:01;;;;;;;1.57;1.40;;;18.50;33.60;;;;;;10406705;28;20240;-68
2021/05/27 13:08:05;;;;;;;1.50;1.20;;;18.40;33.40;;;;;;10406562;28;20830;-69
2021/05/27 13:13:09;;;;;;;0.93;0.93;;;18.50;33.80;;;;;;10406943;28;20706;-69
2021/05/27 13:18:13;;;;;;;1.10;1.00;;;18.50;34.00;;;;;;10406380;28;20233;-69
2021/05/27 13:23:23;;;;;;;1.43;1.03;;;18.60;34.40;;;;;;10406449;28;20617;-69
2021/05/27 13:28:27;;;;;;;1.10;1.00;;;18.60;32.50;;;;;;10406308;28;20702;-69
2021/05/27 13:33:30;;;;;;;2.17;1.03;;;18.60;33.60;;;;;;10406098;28;20308;-69
2021/05/27 13:38:34;;;;;;;2.50;1.00;;;18.50;33.80;;;;;;10405637;28;20256;-69
2021/05/27 13:43:39;;;;;;;1.20;1.10;;;18.50;33.40;;;;;;10405710;28;20741;-69
2021/05/27 13:48:42;;;;;;;1.60;1.20;;;18.60;33.80;;;;;;10378887;28;20222;-69
2021/05/27 13:53:46;;;;;;;1.17;1.10;;;18.50;33.80;;;;;;10388223;28;20233;-69
2021/05/27 13:58:51;;;;;;;1.17;1.10;;;18.60;33.60;;;;;;10405590;28;20312;-69
2021/05/27 14:03:54;;;;;;;1.23;1.10;;;18.60;33.40;;;;;;10411406;28;20770;-69
2021/05/27 14:08:57;;;;;;;2.43;1.27;;;18.60;33.30;;;;;;10412965;28;20725;-69
2021/05/27 14:14:00;;;;;;;1.30;1.20;;;18.60;33.20;;;;;;10384264;28;20311;-68
2021/05/27 14:19:03;;;;;;;1.23;1.00;;;18.60;33.00;;;;;;10371482;28;20246;-69
2021/05/27 14:24:09;;;;;;;1.57;1.20;;;18.60;33.10;;;;;;10371590;28;20233;-69
2021/05/27 14:29:13;;;;;;;1.00;1.00;;;18.60;32.30;;;;;;10371199;28;20636;-69
2021/05/27 14:34:15;;;;;;;2.23;1.03;;;18.60;32.90;;;;;;10370735;28;20690;-69
2021/05/27 14:39:19;;;;;;;2.00;1.10;;;18.60;32.90;;;;;;10371294;28;20309;-69
2021/05/27 14:44:22;;;;;;;1.10;1.00;;;18.60;32.80;;;;;;10370673;28;20234;-69
2021/05/27 14:49:25;;;;;;;0.90;0.90;;;18.80;33.00;;;;;;10370157;28;20233;-69
2021/05/27 14:54:29;;;;;;;1.20;1.13;;;18.90;33.30;;;;;;10380709;28;20706;-70
2021/05/27 14:59:31;;;;;;;1.47;1.37;;;19.00;32.50;;;;;;10405681;28;20265;-69
2021/05/27 15:04:34;;;;;;;1.50;1.30;;;19.10;32.30;;;;;;10396405;28;20761;-69
2021/05/27 15:09:38;;;;;;;1.40;1.30;;;19.10;32.50;;;;;;10409138;28;20246;-72
2021/05/27 15:14:40;;;;;;;1.80;1.30;;;19.10;31.90;;;;;;10409279;28;20225;-68
2021/05/27 15:19:44;;;;;;;1.53;1.43;;;19.10;32.20;;;;;;10410443;28;20590;-69
2021/05/27 15:24:49;;;;;;;1.47;1.20;;;19.10;32.10;;;;;;10409754;28;20774;-69
2021/05/27 15:29:53;;;;;;;1.47;1.20;;;19.00;31.90;;;;;;10409753;28;20228;-69
2021/05/27 15:34:56;;;;;;;1.33;1.07;;;19.00;32.10;;;;;;10409776;28;20229;-69
2021/05/27 15:40:00;;;;;;;1.10;1.00;;;19.00;32.40;;;;;;10408564;28;20663;-69
2021/05/27 15:45:03;;;;;;;1.23;1.20;;;19.10;32.30;;;;;;10400687;28;20260;-69
2021/05/27 15:50:08;;;;;;;1.40;1.20;;;19.10;32.10;;;;;;10409395;28;20321;-69
2021/05/27 15:55:12;;;;;;;1.10;1.00;;;19.10;31.80;;;;;;10408825;28;20734;-69
2021/05/27 16:00:16;;;;;;;1.57;1.27;;;19.10;31.60;;;;;;10408371;28;20265;-69
2021/05/27 16:05:20;;;;;;;1.37;1.27;;;19.10;31.70;;;;;;10438303;28;20316;-69
2021/05/27 16:10:25;;;;;;;1.90;1.23;;;19.00;31.80;;;;;;10448023;28;20307;-69
2021/05/27 16:15:27;;;;;;;0.90;0.90;;;19.00;31.20;;;;;;10449191;28;20312;-69
2021/05/27 16:20:30;;;;;;;1.27;1.00;;;18.90;31.60;;;;;;10448963;28;20228;-68
2021/05/27 16:25:34;;;;;;;1.43;1.10;;;18.90;31.60;;;;;;10448856;28;20312;-68
2021/05/27 16:30:37;;;;;;;1.10;1.00;;;18.80;31.70;;;;;;10449190;28;20653;-68
2021/05/27 16:35:47;;;;;;;1.30;1.20;;;18.80;31.80;;;;;;10448772;28;20227;-68
2021/05/27 16:40:53;;;;;;;4.87;1.20;;;18.80;31.90;;;;;;10448557;28;20308;-68
2021/05/27 16:45:56;;;;;;;1.00;1.00;;;18.80;31.90;;;;;;10448383;28;20252;-68
2021/05/27 16:50:59;;;;;;;2.20;1.30;;;18.80;32.00;;;;;;10448455;28;20255;-68
2021/05/27 16:56:03;;;;;;;1.33;1.23;;;18.80;32.40;;;;;;10406746;28;20283;-68
2021/05/27 17:01:06;;;;;;;1.40;1.30;;;18.70;32.30;;;;;;10407103;28;20296;-68
2021/05/27 17:06:09;;;;;;;1.73;1.20;;;18.70;32.60;;;;;;10406588;28;20288;-68
2021/05/27 17:11:15;;;;;;;1.27;1.10;;;18.60;32.80;;;;;;10406995;28;20226;-68
2021/05/27 17:16:17;;;;;;;1.30;1.17;;;18.60;32.50;;;;;;10406936;28;20283;-68
2021/05/27 17:21:20;;;;;;;1.40;1.30;;;18.50;32.90;;;;;;10406844;28;20312;-68
2021/05/27 17:26:24;;;;;;;1.17;1.13;;;18.40;33.10;;;;;;10406332;28;20239;-69
2021/05/27 17:31:26;;;;;;;0.93;0.93;;;18.40;32.80;;;;;;10406567;28;20305;-69
2021/05/27 17:36:31;;;;;;;1.13;1.13;;;18.30;32.80;;;;;;10409041;28;20225;-69
2021/05/27 17:41:36;;;;;;;2.43;1.20;;;18.30;32.60;;;;;;10414074;28;20312;-69
2021/05/27 17:46:39;;;;;;;1.50;1.30;;;18.30;31.90;;;;;;10413719;28;20233;-69
2021/05/27 17:51:42;;;;;;;1.43;1.30;;;18.20;32.00;;;;;;10411535;28;20229;-69
2021/05/27 17:56:46;;;;;;;1.00;1.00;;;18.10;31.90;;;;;;10410881;28;20229;-69
2021/05/27 18:01:48;;;;;;;1.30;1.20;;;18.00;31.40;;;;;;10411484;28;20228;-69
2021/05/27 18:06:51;;;;;;;2.50;1.60;;;17.90;31.50;;;;;;10412379;28;20591;-69
2021/05/27 18:11:54;;;;;;;1.60;1.50;;;17.80;31.70;;;;;;10412666;28;20236;-69
2021/05/27 18:16:58;;;;;;;2.10;1.70;;;17.70;31.50;;;;;;10412820;28;20225;-69
2021/05/27 18:22:02;;;;;;;1.63;1.53;;;17.70;31.60;;;;;;10453671;28;20296;-69
2021/05/27 18:27:07;;;;;;;1.17;1.10;;;17.60;31.50;;;;;;10453878;28;20708;-69
2021/05/27 18:32:10;;;;;;;0.90;0.90;;;17.50;31.20;;;;;;10453802;28;20308;-69
2021/05/27 18:37:13;;;;;;;1.10;1.00;;;17.40;31.90;;;;;;10453484;28;20336;-69
2021/05/27 18:42:16;;;;;;;2.17;1.20;;;17.40;32.20;;;;;;10452903;28;20702;-69
2021/05/27 18:47:19;;;;;;;1.10;1.00;;;17.30;32.20;;;;;;10420433;28;20317;-68
2021/05/27 18:52:22;;;;;;;1.20;1.10;;;17.20;32.30;;;;;;10411994;28;20287;-69
2021/05/27 18:57:26;;;;;;;1.00;0.90;;;17.20;32.20;;;;;;10411718;28;20728;-69
2021/05/27 19:02:30;;;;;;;1.17;1.00;;;17.10;32.70;;;;;;10409739;28;20595;-69
2021/05/27 19:07:33;;;;;;;1.30;1.27;;;17.10;32.80;;;;;;10409008;28;20233;-69
2021/05/27 19:12:37;;;;;;;1.40;1.30;;;17.10;32.90;;;;;;10388380;28;20234;-69
2021/05/27 19:17:41;;;;;;;1.43;1.30;;;17.10;33.20;;;;;;10369220;28;20230;-69
2021/05/27 19:22:51;;;;;;;2.10;1.90;;;17.00;33.10;;;;;;10368158;28;20573;-69
2021/05/27 19:27:59;;;;;;;1.97;1.77;;;17.00;33.40;;;;;;10368795;28;20309;-69
2021/05/27 19:33:02;;;;;;;1.90;1.80;;;16.90;33.70;;;;;;10405991;28;20657;-69
2021/05/27 19:38:04;;;;;;;11.03;9.33;;;16.90;33.40;;;;;;10409176;28;20709;-69
2021/05/27 19:43:08;;;;;;;12.57;10.07;;;16.90;33.30;;;;;;10409278;28;20275;-69
2021/05/27 19:48:11;;;;;;;6.43;5.80;;;16.80;33.70;;;;;;10405891;28;20233;-69
2021/05/27 19:53:14;;;;;;;4.10;3.70;;;16.70;33.50;;;;;;10401404;28;20236;-69
2021/05/27 19:58:18;;;;;;;2.97;2.70;;;16.60;34.20;;;;;;10408319;28;20316;-69
2021/05/27 20:03:20;;;;;;;2.70;2.50;;;16.50;33.40;;;;;;10408140;28;20232;-69
2021/05/27 20:08:23;;;;;;;2.10;1.90;;;16.50;33.40;;;;;;10408625;28;20304;-68
2021/05/27 20:13:27;;;;;;;1.83;1.73;;;16.40;34.00;;;;;;10408357;28;20325;-69
2021/05/27 20:18:29;;;;;;;1.60;1.50;;;16.40;33.30;;;;;;10408319;28;20283;-69
2021/05/27 20:23:32;;;;;;;1.70;1.60;;;16.40;33.30;;;;;;10408027;28;20244;-69
2021/05/27 20:28:36;;;;;;;1.80;1.70;;;16.30;33.30;;;;;;10408267;28;20247;-69
2021/05/27 20:33:38;;;;;;;1.53;1.40;;;16.20;34.20;;;;;;10407708;28;20316;-68
2021/05/27 20:38:42;;;;;;;1.40;1.30;;;16.20;33.70;;;;;;10407594;28;20722;-69
2021/05/27 20:43:46;;;;;;;1.50;1.40;;;16.20;33.90;;;;;;10407461;28;20236;-69
2021/05/27 20:48:49;;;;;;;1.37;1.27;;;16.10;33.90;;;;;;10407109;28;20232;-69
2021/05/27 20:53:52;;;;;;;1.30;1.20;;;16.10;34.10;;;;;;10406547;28;20324;-69
2021/05/27 20:58:56;;;;;;;1.07;1.07;;;16.10;33.90;;;;;;10405398;28;20659;-69
2021/05/27 21:03:59;;;;;;;3.90;3.53;;;16.00;34.10;;;;;;10405478;28;20236;-70
2021/05/27 21:09:02;;;;;;;5.67;4.13;;;16.00;34.00;;;;;;10406501;28;20697;-69
2021/05/27 21:14:06;;;;;;;4.23;3.83;;;16.10;34.10;;;;;;10414076;28;20253;-68
2021/05/27 21:19:09;;;;;;;5.17;3.50;;;16.10;34.30;;;;;;10415159;28;20261;-69
2021/05/27 21:24:12;;;;;;;4.63;3.33;;;16.10;34.00;;;;;;10415006;28;20316;-69
2021/05/27 21:29:15;;;;;;;3.77;3.43;;;16.10;34.10;;;;;;10415066;28;20226;-69
2021/05/27 21:34:18;;;;;;;3.07;2.50;;;16.00;34.10;;;;;;10414146;28;20252;-69
2021/05/27 21:39:22;;;;;;;3.00;2.70;;;16.00;34.10;;;;;;10414312;28;20225;-69
2021/05/27 21:44:26;;;;;;;3.10;2.10;;;16.10;34.30;;;;;;10376915;28;20234;-68
2021/05/27 21:49:28;;;;;;;1.50;1.40;;;16.10;34.40;;;;;;10373117;28;20222;-69
2021/05/27 21:54:31;;;;;;;1.60;1.50;;;16.10;34.30;;;;;;10381602;28;20232;-69
2021/05/27 21:59:35;;;;;;;1.83;1.73;;;16.10;34.40;;;;;;10413673;28;20252;-69
2021/05/27 22:04:37;;;;;;;1.20;1.20;;;16.10;34.50;;;;;;10413078;28;20237;-69
2021/05/27 22:09:40;;;;;;;2.33;1.43;;;16.20;34.40;;;;;;10392191;28;20300;-69
2021/05/27 22:14:44;;;;;;;1.40;1.30;;;16.10;34.40;;;;;;10412942;28;20393;-69
2021/05/27 22:19:46;;;;;;;1.70;1.40;;;16.20;34.50;;;;;;10411614;28;20309;-69
2021/05/27 22:24:49;;;;;;;2.57;1.23;;;16.20;34.50;;;;;;10412256;28;20316;-69
2021/05/27 22:29:53;;;;;;;1.53;1.43;;;16.10;34.30;;;;;;10412571;28;20255;-69
2021/05/27 22:34:55;;;;;;;1.80;1.57;;;16.10;34.60;;;;;;10412143;28;20312;-69
2021/05/27 22:39:58;;;;;;;1.40;1.30;;;16.00;34.50;;;;;;10389863;28;20229;-69
2021/05/27 22:45:02;;;;;;;1.40;1.30;;;16.00;34.60;;;;;;10378895;28;20233;-69
2021/05/27 22:50:05;;;;;;;1.30;1.27;;;15.90;34.60;;;;;;10411158;28;20225;-69
2021/05/27 22:55:09;;;;;;;1.67;1.40;;;15.80;34.80;;;;;;10397716;28;20761;-69
2021/05/27 23:00:14;;;;;;;1.63;1.50;;;15.80;35.00;;;;;;10411242;28;20337;-68
2021/05/27 23:05:17;;;;;;;1.63;1.53;;;15.80;35.20;;;;;;10391207;28;20230;-69
2021/05/27 23:10:21;;;;;;;1.57;1.40;;;15.80;35.20;;;;;;10370305;28;20234;-68
2021/05/27 23:15:24;;;;;;;3.13;1.60;;;15.80;35.30;;;;;;10401902;28;20287;-69
2021/05/27 23:20:27;;;;;;;1.77;1.63;;;15.70;35.40;;;;;;10384307;28;20222;-69
2021/05/27 23:25:30;;;;;;;1.90;1.70;;;15.70;35.30;;;;;;10408693;28;20710;-68
2021/05/27 23:30:34;;;;;;;3.30;1.80;;;15.70;35.40;;;;;;10410128;28;20901;-69
2021/05/27 23:35:36;;;;;;;1.60;1.50;;;15.60;35.60;;;;;;10367964;28;20781;-68
2021/05/27 23:40:39;;;;;;;2.03;1.73;;;15.60;35.60;;;;;;10383177;28;20271;-69
2021/05/27 23:45:43;;;;;;;1.80;1.70;;;15.50;35.70;;;;;;10409399;28;20248;-69
2021/05/27 23:50:46;;;;;;;1.67;1.57;;;15.50;36.00;;;;;;10409033;28;20305;-69
2021/05/27 23:55:48;;;;;;;2.10;1.90;;;15.40;35.90;;;;;;10408889;28;20244;-69
